sensor_id;sensor_type;location;lat;lon;timestamp;pressure;altitude;pressure_sealevel;temperature;humidity
41515;BME280;27247;48.020;16.720;2022-12-07T00:01:31;99762.63;;;2.84;100.00
41515;BME280;27247;48.020;16.720;2022-12-07T00:05:41;99760.25;;;2.81;100.00
41515;BME280;27247;48.020;16.720;2022-12-07T00:09:52;99760.84;;;2.85;100.00
41515;BME280;27247;48.020;16.720;2022-12-07T00:14:05;99751.81;;;2.87;100.00
41515;BME280;27247;48.020;16.720;2022-12-07T00:18:15;99748.66;;;2.94;100.00
41515;BME280;27247;48.020;16.720;2022-12-07T00:22:26;99750.84;;;2.88;100.00
41515;BME280;27247;48.020;16.720;2022-12-07T00:26:38;99746.28;;;2.91;100.00
41515;BME280;27247;48.020;16.720;2022-12-07T00:30:49;99746.16;;;2.92;100.00
41515;BME280;27247;48.020;16.720;2022-12-07T00:34:59;99747.06;;;2.81;100.00
41515;BME280;27247;48.020;16.720;2022-12-07T00:39:10;99750.31;;;2.53;100.00
41515;BME280;27247;48.020;16.720;2022-12-07T00:43:20;99747.84;;;2.40;100.00
41515;BME280;27247;48.020;16.720;2022-12-07T00:47:30;99754.19;;;2.49;100.00
41515;BME280;27247;48.020;16.720;2022-12-07T00:51:40;99755.09;;;2.59;100.00
41515;BME280;27247;48.020;16.720;2022-12-07T00:55:51;99755.03;;;2.70;100.00
41515;BME280;27247;48.020;16.720;2022-12-07T01:00:02;99760.56;;;2.88;100.00
41515;BME280;27247;48.020;16.720;2022-12-07T01:04:13;99766.03;;;2.96;100.00
41515;BME280;27247;48.020;16.720;2022-12-07T01:08:24;99766.31;;;2.93;100.00
41515;BME280;27247;48.020;16.720;2022-12-07T01:12:35;99760.91;;;2.95;100.00
41515;BME280;27247;48.020;16.720;2022-12-07T01:16:45;99763.78;;;2.92;100.00
41515;BME280;27247;48.020;16.720;2022-12-07T01:21:12;99765.72;;;2.89;100.00
41515;BME280;27247;48.020;16.720;2022-12-07T01:25:23;99765.59;;;2.91;100.00
41515;BME280;27247;48.020;16.720;2022-12-07T01:29:35;99764.69;;;2.81;100.00
41515;BME280;27247;48.020;16.720;2022-12-07T01:33:54;99756.31;;;2.76;100.00
41515;BME280;27247;48.020;16.720;2022-12-07T01:38:04;99755.03;;;2.70;100.00
41515;BME280;27247;48.020;16.720;2022-12-07T01:42:15;99746.09;;;2.62;100.00
41515;BME280;27247;48.020;16.720;2022-12-07T01:46:25;99745.97;;;2.63;100.00
41515;BME280;27247;48.020;16.720;2022-12-07T01:50:37;99746.28;;;2.70;100.00
41515;BME280;27247;48.020;16.720;2022-12-07T01:54:51;99747.78;;;2.83;100.00
41515;BME280;27247;48.020;16.720;2022-12-07T01:59:03;99750.34;;;2.95;100.00
41515;BME280;27247;48.020;16.720;2022-12-07T02:03:34;99743.13;;;2.97;100.00
41515;BME280;27247;48.020;16.720;2022-12-07T02:07:47;99742.88;;;3.00;100.00
41515;BME280;27247;48.020;16.720;2022-12-07T02:11:58;99740.50;;;2.97;100.00
41515;BME280;27247;48.020;16.720;2022-12-07T02:20:53;99734.66;;;3.14;100.00
41515;BME280;27247;48.020;16.720;2022-12-07T02:25:29;99735.81;;;3.21;100.00
41515;BME280;27247;48.020;16.720;2022-12-07T02:29:58;99735.75;;;3.42;100.00
41515;BME280;27247;48.020;16.720;2022-12-07T02:34:19;99727.16;;;3.49;100.00
41515;BME280;27247;48.020;16.720;2022-12-07T02:38:46;99731.09;;;3.55;100.00
41515;BME280;27247;48.020;16.720;2022-12-07T02:43:04;99729.03;;;3.68;100.00
41515;BME280;27247;48.020;16.720;2022-12-07T02:47:17;99728.06;;;3.69;100.00
41515;BME280;27247;48.020;16.720;2022-12-07T02:51:31;99733.66;;;3.76;100.00
41515;BME280;27247;48.020;16.720;2022-12-07T02:55:42;99730.59;;;3.80;100.00
41515;BME280;27247;48.020;16.720;2022-12-07T03:13:22;99734.22;;;3.79;100.00
41515;BME280;27247;48.020;16.720;2022-12-07T03:17:35;99736.03;;;3.79;100.00
41515;BME280;27247;48.020;16.720;2022-12-07T03:21:59;99737.25;;;3.75;100.00
41515;BME280;27247;48.020;16.720;2022-12-07T03:26:12;99744.22;;;3.76;100.00
41515;BME280;27247;48.020;16.720;2022-12-07T03:30:33;99728.94;;;3.79;100.00
41515;BME280;27247;48.020;16.720;2022-12-07T03:34:50;99733.50;;;3.77;100.00
41515;BME280;27247;48.020;16.720;2022-12-07T03:39:13;99748.25;;;3.80;100.00
41515;BME280;27247;48.020;16.720;2022-12-07T03:43:29;99744.50;;;3.73;100.00
41515;BME280;27247;48.020;16.720;2022-12-07T03:56:03;99744.84;;;3.59;100.00
41515;BME280;27247;48.020;16.720;2022-12-07T04:00:15;99741.94;;;3.62;100.00
41515;BME280;27247;48.020;16.720;2022-12-07T04:04:25;99733.75;;;3.65;100.00
41515;BME280;27247;48.020;16.720;2022-12-07T04:08:36;99742.53;;;3.65;100.00
41515;BME280;27247;48.020;16.720;2022-12-07T04:12:46;99737.94;;;3.67;100.00
41515;BME280;27247;48.020;16.720;2022-12-07T04:16:58;99746.56;;;3.69;100.00
41515;BME280;27247;48.020;16.720;2022-12-07T04:21:08;99748.63;;;3.66;100.00
41515;BME280;27247;48.020;16.720;2022-12-07T04:25:18;99749.50;;;3.76;100.00
41515;BME280;27247;48.020;16.720;2022-12-07T04:29:29;99737.00;;;3.78;100.00
41515;BME280;27247;48.020;16.720;2022-12-07T04:33:39;99742.00;;;3.81;100.00
41515;BME280;27247;48.020;16.720;2022-12-07T04:37:49;99746.16;;;3.74;100.00
41515;BME280;27247;48.020;16.720;2022-12-07T04:42:00;99754.09;;;3.74;100.00
41515;BME280;27247;48.020;16.720;2022-12-07T04:46:11;99764.66;;;3.74;100.00
41515;BME280;27247;48.020;16.720;2022-12-07T04:50:21;99753.97;;;3.75;100.00
41515;BME280;27247;48.020;16.720;2022-12-07T04:54:31;99757.03;;;3.80;100.00
41515;BME280;27247;48.020;16.720;2022-12-07T04:58:43;99757.03;;;3.80;100.00
41515;BME280;27247;48.020;16.720;2022-12-07T05:02:54;99752.84;;;3.78;100.00
41515;BME280;27247;48.020;16.720;2022-12-07T05:07:04;99751.44;;;3.74;100.00
41515;BME280;27247;48.020;16.720;2022-12-07T05:11:14;99761.28;;;3.62;100.00
41515;BME280;27247;48.020;16.720;2022-12-07T05:15:46;99753.22;;;3.64;100.00
41515;BME280;27247;48.020;16.720;2022-12-07T05:19:57;99755.44;;;3.59;100.00
41515;BME280;27247;48.020;16.720;2022-12-07T05:24:09;99746.66;;;3.58;100.00
41515;BME280;27247;48.020;16.720;2022-12-07T05:28:19;99754.59;;;3.58;100.00
41515;BME280;27247;48.020;16.720;2022-12-07T05:32:30;99748.38;;;3.69;100.00
41515;BME280;27247;48.020;16.720;2022-12-07T05:36:40;99749.47;;;3.66;100.00
41515;BME280;27247;48.020;16.720;2022-12-07T05:40:50;99747.53;;;3.68;100.00
41515;BME280;27247;48.020;16.720;2022-12-07T05:45:01;99744.63;;;3.71;100.00
41515;BME280;27247;48.020;16.720;2022-12-07T05:49:11;99748.94;;;3.72;100.00
41515;BME280;27247;48.020;16.720;2022-12-07T05:53:21;99755.75;;;3.75;100.00
41515;BME280;27247;48.020;16.720;2022-12-07T05:57:32;99758.13;;;3.78;100.00
41515;BME280;27247;48.020;16.720;2022-12-07T06:01:42;99749.91;;;3.71;100.00
41515;BME280;27247;48.020;16.720;2022-12-07T06:05:53;99750.44;;;3.65;100.00
41515;BME280;27247;48.020;16.720;2022-12-07T06:10:03;99753.66;;;3.69;100.00
41515;BME280;27247;48.020;16.720;2022-12-07T06:14:14;99761.44;;;3.70;100.00
41515;BME280;27247;48.020;16.720;2022-12-07T06:18:24;99756.31;;;3.69;100.00
41515;BME280;27247;48.020;16.720;2022-12-07T06:22:35;99754.50;;;3.69;100.00
41515;BME280;27247;48.020;16.720;2022-12-07T06:26:45;99754.34;;;3.71;100.00
41515;BME280;27247;48.020;16.720;2022-12-07T06:30:59;99749.47;;;3.66;100.00
41515;BME280;27247;48.020;16.720;2022-12-07T06:35:10;99747.53;;;3.68;100.00
41515;BME280;27247;48.020;16.720;2022-12-07T06:39:26;99747.00;;;3.74;100.00
41515;BME280;27247;48.020;16.720;2022-12-07T06:43:38;99753.56;;;3.80;100.00
41515;BME280;27247;48.020;16.720;2022-12-07T06:47:48;99758.69;;;3.81;100.00
41515;BME280;27247;48.020;16.720;2022-12-07T06:51:59;99754.81;;;3.85;100.00
41515;BME280;27247;48.020;16.720;2022-12-07T06:56:09;99760.25;;;3.94;100.00
41515;BME280;27247;48.020;16.720;2022-12-07T07:00:20;99749.13;;;3.90;100.00
41515;BME280;27247;48.020;16.720;2022-12-07T07:04:30;99759.28;;;3.95;100.00
41515;BME280;27247;48.020;16.720;2022-12-07T07:08:41;99761.53;;;3.99;100.00
41515;BME280;27247;48.020;16.720;2022-12-07T07:12:51;99768.50;;;4.00;100.00
41515;BME280;27247;48.020;16.720;2022-12-07T07:17:02;99761.25;;;4.02;100.00
41515;BME280;27247;48.020;16.720;2022-12-07T07:21:12;99773.38;;;4.05;100.00
41515;BME280;27247;48.020;16.720;2022-12-07T07:25:22;99765.31;;;4.06;100.00
41515;BME280;27247;48.020;16.720;2022-12-07T07:29:33;99770.88;;;4.13;100.00
41515;BME280;27247;48.020;16.720;2022-12-07T07:33:45;99774.78;;;4.09;100.00
41515;BME280;27247;48.020;16.720;2022-12-07T07:37:56;99773.53;;;4.13;100.00
41515;BME280;27247;48.020;16.720;2022-12-07T07:42:07;99781.16;;;3.97;100.00
41515;BME280;27247;48.020;16.720;2022-12-07T07:46:17;99763.91;;;4.02;100.00
41515;BME280;27247;48.020;16.720;2022-12-07T07:50:28;99775.34;;;4.12;100.00
41515;BME280;27247;48.020;16.720;2022-12-07T07:54:38;99781.72;;;4.10;100.00
41515;BME280;27247;48.020;16.720;2022-12-07T07:58:52;99785.22;;;4.10;100.00
41515;BME280;27247;48.020;16.720;2022-12-07T08:03:02;99791.06;;;4.14;100.00
41515;BME280;27247;48.020;16.720;2022-12-07T08:07:13;99796.53;;;4.22;100.00
41515;BME280;27247;48.020;16.720;2022-12-07T08:11:24;99797.38;;;4.23;100.00
41515;BME280;27247;48.020;16.720;2022-12-07T08:15:36;99789.03;;;4.18;100.00
41515;BME280;27247;48.020;16.720;2022-12-07T08:19:47;99779.16;;;4.20;100.00
41515;BME280;27247;48.020;16.720;2022-12-07T08:23:57;99793.50;;;4.27;100.00
41515;BME280;27247;48.020;16.720;2022-12-07T08:28:08;99796.44;;;4.33;100.00
41515;BME280;27247;48.020;16.720;2022-12-07T08:32:18;99799.63;;;4.27;100.00
41515;BME280;27247;48.020;16.720;2022-12-07T08:36:28;99807.13;;;4.22;100.00
41515;BME280;27247;48.020;16.720;2022-12-07T08:40:39;99806.31;;;4.31;100.00
41515;BME280;27247;48.020;16.720;2022-12-07T08:44:49;99804.09;;;4.36;100.00
41515;BME280;27247;48.020;16.720;2022-12-07T08:49:10;99816.50;;;4.45;100.00
41515;BME280;27247;48.020;16.720;2022-12-07T08:53:22;99814.53;;;4.47;100.00
41515;BME280;27247;48.020;16.720;2022-12-07T08:57:33;99814.28;;;4.51;100.00
41515;BME280;27247;48.020;16.720;2022-12-07T09:01:44;99811.63;;;4.60;100.00
41515;BME280;27247;48.020;16.720;2022-12-07T09:05:55;99820.97;;;4.64;99.25
41515;BME280;27247;48.020;16.720;2022-12-07T09:10:06;99819.03;;;4.66;96.79
41515;BME280;27247;48.020;16.720;2022-12-07T09:14:16;99828.78;;;4.75;96.60
41515;BME280;27247;48.020;16.720;2022-12-07T09:18:27;99820.97;;;4.74;94.32
41515;BME280;27247;48.020;16.720;2022-12-07T09:22:37;99817.06;;;4.78;93.11
41515;BME280;27247;48.020;16.720;2022-12-07T09:26:48;99820.84;;;4.85;92.20
41515;BME280;27247;48.020;16.720;2022-12-07T09:30:58;99818.19;;;4.85;90.85
41515;BME280;27247;48.020;16.720;2022-12-07T09:35:08;99809.28;;;4.76;90.13
41515;BME280;27247;48.020;16.720;2022-12-07T09:39:19;99807.19;;;4.80;89.28
41515;BME280;27247;48.020;16.720;2022-12-07T09:43:30;99801.75;;;4.81;88.38
41515;BME280;27247;48.020;16.720;2022-12-07T09:47:40;99803.16;;;4.76;87.59
41515;BME280;27247;48.020;16.720;2022-12-07T09:56:23;99778.91;;;4.80;84.11
41515;BME280;27247;48.020;16.720;2022-12-07T10:00:34;99778.91;;;4.61;83.69
41515;BME280;27247;48.020;16.720;2022-12-07T10:04:44;99790.47;;;4.70;84.96
41515;BME280;27247;48.020;16.720;2022-12-07T10:08:55;99787.81;;;4.89;84.40
41515;BME280;27247;48.020;16.720;2022-12-07T10:13:08;99779.44;;;5.23;82.19
41515;BME280;27247;48.020;16.720;2022-12-07T10:21:37;99771.75;;;5.66;81.50
41515;BME280;27247;48.020;16.720;2022-12-07T10:25:47;99774.44;;;5.94;81.78
41515;BME280;27247;48.020;16.720;2022-12-07T10:29:59;99772.97;;;6.09;81.88
41515;BME280;27247;48.020;16.720;2022-12-07T10:34:37;99768.66;;;6.35;79.25
41515;BME280;27247;48.020;16.720;2022-12-07T10:38:51;99760.38;;;6.56;78.79
41515;BME280;27247;48.020;16.720;2022-12-07T10:47:36;99757.53;;;6.93;78.84
41515;BME280;27247;48.020;16.720;2022-12-07T10:56:29;99749.91;;;6.72;73.49
41515;BME280;27247;48.020;16.720;2022-12-07T11:00:50;99749.84;;;6.47;73.00
41515;BME280;27247;48.020;16.720;2022-12-07T11:14:11;99741.56;;;5.77;76.55
41515;BME280;27247;48.020;16.720;2022-12-07T11:27:38;99730.44;;;6.28;72.06
41515;BME280;27247;48.020;16.720;2022-12-07T11:40:46;99724.66;;;6.33;75.28
41515;BME280;27247;48.020;16.720;2022-12-07T11:45:13;99723.00;;;6.50;75.19
41515;BME280;27247;48.020;16.720;2022-12-07T11:49:44;99717.38;;;6.53;72.19
41515;BME280;27247;48.020;16.720;2022-12-07T11:54:02;99714.03;;;6.51;73.33
41515;BME280;27247;48.020;16.720;2022-12-07T12:02:53;99706.06;;;6.68;68.85
41515;BME280;27247;48.020;16.720;2022-12-07T12:07:07;99701.91;;;6.48;70.10
41515;BME280;27247;48.020;16.720;2022-12-07T12:16:04;99714.50;;;6.28;70.81
41515;BME280;27247;48.020;16.720;2022-12-07T12:20:23;99710.03;;;6.29;71.12
41515;BME280;27247;48.020;16.720;2022-12-07T12:24:38;99700.28;;;6.20;70.43
41515;BME280;27247;48.020;16.720;2022-12-07T12:29:03;99708.44;;;5.91;71.96
41515;BME280;27247;48.020;16.720;2022-12-07T13:04:12;99702.28;;;7.23;69.96
41515;BME280;27247;48.020;16.720;2022-12-07T13:08:25;99704.06;;;7.14;68.13
41515;BME280;27247;48.020;16.720;2022-12-07T13:12:36;99702.75;;;7.18;69.26
41515;BME280;27247;48.020;16.720;2022-12-07T13:16:46;99708.28;;;7.25;67.79
41515;BME280;27247;48.020;16.720;2022-12-07T13:25:38;99695.94;;;7.42;66.95
41515;BME280;27247;48.020;16.720;2022-12-07T13:29:51;99700.53;;;7.65;69.03
41515;BME280;27247;48.020;16.720;2022-12-07T13:34:27;99706.44;;;7.93;67.46
41515;BME280;27247;48.020;16.720;2022-12-07T13:38:35;99700.47;;;7.99;65.98
41515;BME280;27247;48.020;16.720;2022-12-07T13:42:47;99701.97;;;8.02;66.29
41515;BME280;27247;48.020;16.720;2022-12-07T13:47:15;99713.59;;;8.01;64.80
41515;BME280;27247;48.020;16.720;2022-12-07T13:51:28;99712.25;;;7.89;64.92
41515;BME280;27247;48.020;16.720;2022-12-07T13:55:45;99707.91;;;7.88;64.90
41515;BME280;27247;48.020;16.720;2022-12-07T13:59:56;99704.88;;;7.75;65.74
41515;BME280;27247;48.020;16.720;2022-12-07T14:04:37;99697.69;;;7.67;66.93
41515;BME280;27247;48.020;16.720;2022-12-07T14:08:47;99701.25;;;7.42;66.77
41515;BME280;27247;48.020;16.720;2022-12-07T14:12:59;99699.78;;;7.21;68.67
41515;BME280;27247;48.020;16.720;2022-12-07T14:17:21;99706.75;;;6.96;70.35
41515;BME280;27247;48.020;16.720;2022-12-07T14:21:34;99710.13;;;6.81;71.12
41515;BME280;27247;48.020;16.720;2022-12-07T14:25:54;99711.00;;;6.63;71.58
41515;BME280;27247;48.020;16.720;2022-12-07T14:30:05;99710.31;;;6.61;74.14
41515;BME280;27247;48.020;16.720;2022-12-07T14:34:16;99706.47;;;6.38;73.89
41515;BME280;27247;48.020;16.720;2022-12-07T14:38:26;99706.19;;;6.14;73.68
41515;BME280;27247;48.020;16.720;2022-12-07T14:42:36;99705.94;;;5.89;75.28
41515;BME280;27247;48.020;16.720;2022-12-07T14:46:49;99717.84;;;5.48;77.42
41515;BME280;27247;48.020;16.720;2022-12-07T14:51:00;99715.16;;;5.21;78.89
41515;BME280;27247;48.020;16.720;2022-12-07T14:55:20;99717.09;;;5.28;78.44
41515;BME280;27247;48.020;16.720;2022-12-07T14:59:32;99720.78;;;4.98;79.47
41515;BME280;27247;48.020;16.720;2022-12-07T15:03:43;99725.66;;;4.93;79.85
41515;BME280;27247;48.020;16.720;2022-12-07T15:07:54;99734.31;;;4.86;80.56
41515;BME280;27247;48.020;16.720;2022-12-07T15:12:05;99736.00;;;4.77;80.22
41515;BME280;27247;48.020;16.720;2022-12-07T15:16:19;99735.03;;;4.68;79.95
41515;BME280;27247;48.020;16.720;2022-12-07T15:20:29;99731.13;;;4.53;79.95
41515;BME280;27247;48.020;16.720;2022-12-07T15:24:40;99735.44;;;4.44;79.76
41515;BME280;27247;48.020;16.720;2022-12-07T15:28:53;99727.09;;;4.39;79.36
41515;BME280;27247;48.020;16.720;2022-12-07T15:33:03;99733.38;;;4.38;79.15
41515;BME280;27247;48.020;16.720;2022-12-07T15:37:14;99732.94;;;4.33;79.54
41515;BME280;27247;48.020;16.720;2022-12-07T15:41:25;99733.84;;;4.03;81.58
41515;BME280;27247;48.020;16.720;2022-12-07T15:45:35;99733.50;;;3.77;82.79
41515;BME280;27247;48.020;16.720;2022-12-07T15:49:46;99734.81;;;3.93;82.32
41515;BME280;27247;48.020;16.720;2022-12-07T15:53:57;99735.88;;;3.80;83.42
41515;BME280;27247;48.020;16.720;2022-12-07T15:58:07;99740.63;;;3.87;83.35
41515;BME280;27247;48.020;16.720;2022-12-07T16:02:25;99743.53;;;3.83;83.36
41515;BME280;27247;48.020;16.720;2022-12-07T16:06:35;99744.25;;;3.85;82.91
41515;BME280;27247;48.020;16.720;2022-12-07T16:10:46;99748.84;;;3.93;82.69
41515;BME280;27247;48.020;16.720;2022-12-07T16:14:56;99747.25;;;3.71;82.69
41515;BME280;27247;48.020;16.720;2022-12-07T16:19:07;99749.91;;;3.71;83.57
41515;BME280;27247;48.020;16.720;2022-12-07T16:23:18;99745.63;;;3.40;83.20
41515;BME280;27247;48.020;16.720;2022-12-07T16:27:28;99746.28;;;2.91;84.54
41515;BME280;27247;48.020;16.720;2022-12-07T16:31:39;99746.22;;;2.81;83.42
41515;BME280;27247;48.020;16.720;2022-12-07T16:35:50;99751.94;;;2.65;82.39
41515;BME280;27247;48.020;16.720;2022-12-07T16:40:00;99745.97;;;2.84;81.78
41515;BME280;27247;48.020;16.720;2022-12-07T16:44:12;99754.13;;;2.81;82.73
41515;BME280;27247;48.020;16.720;2022-12-07T16:48:22;99762.25;;;2.36;84.06
41515;BME280;27247;48.020;16.720;2022-12-07T16:52:33;99762.16;;;2.27;85.26
41515;BME280;27247;48.020;16.720;2022-12-07T16:56:43;99756.22;;;2.45;84.57
41515;BME280;27247;48.020;16.720;2022-12-07T17:00:54;99756.84;;;2.70;83.29
41515;BME280;27247;48.020;16.720;2022-12-07T17:05:04;99757.94;;;2.88;83.30
41515;BME280;27247;48.020;16.720;2022-12-07T17:09:15;99762.00;;;2.92;83.23
41515;BME280;27247;48.020;16.720;2022-12-07T17:13:25;99758.13;;;2.96;83.64
41515;BME280;27247;48.020;16.720;2022-12-07T17:18:00;99759.63;;;2.89;83.82
41515;BME280;27247;48.020;16.720;2022-12-07T17:22:10;99774.41;;;2.80;84.29
41515;BME280;27247;48.020;16.720;2022-12-07T17:26:24;99768.75;;;2.85;84.14
41515;BME280;27247;48.020;16.720;2022-12-07T17:30:34;99765.16;;;2.86;82.57
41515;BME280;27247;48.020;16.720;2022-12-07T17:34:45;99771.91;;;2.79;81.64
41515;BME280;27247;48.020;16.720;2022-12-07T17:38:56;99762.00;;;2.92;80.83
41515;BME280;27247;48.020;16.720;2022-12-07T17:43:06;99781.56;;;2.89;80.88
41515;BME280;27247;48.020;16.720;2022-12-07T17:47:16;99768.25;;;2.91;81.52
41515;BME280;27247;48.020;16.720;2022-12-07T17:51:28;99771.91;;;3.00;81.83
41515;BME280;27247;48.020;16.720;2022-12-07T17:55:58;99769.00;;;3.03;82.04
41515;BME280;27247;48.020;16.720;2022-12-07T18:00:09;99770.63;;;2.94;82.79
41515;BME280;27247;48.020;16.720;2022-12-07T18:04:20;99764.88;;;2.89;83.34
41515;BME280;27247;48.020;16.720;2022-12-07T18:08:34;99764.13;;;2.98;83.33
41515;BME280;27247;48.020;16.720;2022-12-07T18:12:45;99762.38;;;2.87;84.28
41515;BME280;27247;48.020;16.720;2022-12-07T18:16:57;99769.84;;;2.82;83.93
41515;BME280;27247;48.020;16.720;2022-12-07T18:21:11;99777.00;;;2.39;84.26
41515;BME280;27247;48.020;16.720;2022-12-07T18:25:23;99766.47;;;2.60;83.75
41515;BME280;27247;48.020;16.720;2022-12-07T18:29:34;99766.72;;;2.56;83.95
41515;BME280;27247;48.020;16.720;2022-12-07T18:33:46;99773.13;;;2.43;84.92
41515;BME280;27247;48.020;16.720;2022-12-07T18:37:57;99769.88;;;2.50;84.85
41515;BME280;27247;48.020;16.720;2022-12-07T18:42:08;99764.63;;;2.39;85.94
41515;BME280;27247;48.020;16.720;2022-12-07T18:46:20;99771.16;;;2.24;86.87
41515;BME280;27247;48.020;16.720;2022-12-07T18:50:30;99761.84;;;2.20;87.01
41515;BME280;27247;48.020;16.720;2022-12-07T18:54:41;99758.25;;;2.10;86.77
41515;BME280;27247;48.020;16.720;2022-12-07T18:58:54;99758.25;;;2.10;87.40
41515;BME280;27247;48.020;16.720;2022-12-07T19:03:24;99759.00;;;1.89;88.63
41515;BME280;27247;48.020;16.720;2022-12-07T19:07:35;99772.03;;;1.91;89.56
41515;BME280;27247;48.020;16.720;2022-12-07T19:11:46;99771.06;;;2.03;90.20
41515;BME280;27247;48.020;16.720;2022-12-07T19:15:59;99758.03;;;1.90;89.19
41515;BME280;27247;48.020;16.720;2022-12-07T19:20:13;99770.63;;;1.76;91.42
41515;BME280;27247;48.020;16.720;2022-12-07T19:24:24;99764.88;;;1.82;92.38
41515;BME280;27247;48.020;16.720;2022-12-07T19:28:35;99763.19;;;1.92;92.71
41515;BME280;27247;48.020;16.720;2022-12-07T19:32:45;99760.31;;;1.95;90.39
41515;BME280;27247;48.020;16.720;2022-12-07T19:36:57;99769.03;;;2.18;89.86
41515;BME280;27247;48.020;16.720;2022-12-07T19:41:10;99762.75;;;2.30;89.46
41515;BME280;27247;48.020;16.720;2022-12-07T19:45:39;99776.63;;;2.43;88.82
41515;BME280;27247;48.020;16.720;2022-12-07T19:49:50;99770.97;;;2.48;88.96
41515;BME280;27247;48.020;16.720;2022-12-07T19:54:01;99770.50;;;2.43;88.24
41515;BME280;27247;48.020;16.720;2022-12-07T19:58:12;99762.66;;;2.52;87.82
41515;BME280;27247;48.020;16.720;2022-12-07T20:02:23;99763.25;;;2.56;87.04
41515;BME280;27247;48.020;16.720;2022-12-07T20:06:33;99773.22;;;2.52;86.40
41515;BME280;27247;48.020;16.720;2022-12-07T20:10:44;99774.69;;;2.45;86.30
41515;BME280;27247;48.020;16.720;2022-12-07T20:14:54;99773.13;;;2.43;86.31
41515;BME280;27247;48.020;16.720;2022-12-07T20:19:06;99772.56;;;2.39;85.69
41515;BME280;27247;48.020;16.720;2022-12-07T20:23:18;99764.19;;;2.34;85.59
41515;BME280;27247;48.020;16.720;2022-12-07T20:27:29;99765.69;;;2.16;86.21
41515;BME280;27247;48.020;16.720;2022-12-07T20:31:41;99765.91;;;2.13;86.15
41515;BME280;27247;48.020;16.720;2022-12-07T20:35:51;99770.34;;;2.12;86.20
41515;BME280;27247;48.020;16.720;2022-12-07T20:40:02;99776.47;;;2.13;86.54
41515;BME280;27247;48.020;16.720;2022-12-07T20:44:14;99773.44;;;2.06;85.92
41515;BME280;27247;48.020;16.720;2022-12-07T20:48:26;99773.13;;;2.11;85.38
41515;BME280;27247;48.020;16.720;2022-12-07T20:52:37;99770.94;;;2.05;85.22
41515;BME280;27247;48.020;16.720;2022-12-07T20:56:47;99780.88;;;2.01;85.97
41515;BME280;27247;48.020;16.720;2022-12-07T21:01:02;99776.22;;;1.93;86.47
41515;BME280;27247;48.020;16.720;2022-12-07T21:05:12;99775.75;;;2.00;86.92
41515;BME280;27247;48.020;16.720;2022-12-07T21:09:23;99775.41;;;1.93;87.21
41515;BME280;27247;48.020;16.720;2022-12-07T21:13:36;99768.34;;;1.93;86.65
41515;BME280;27247;48.020;16.720;2022-12-07T21:17:46;99773.47;;;1.95;86.29
41515;BME280;27247;48.020;16.720;2022-12-07T21:21:56;99765.66;;;2.05;85.80
41515;BME280;27247;48.020;16.720;2022-12-07T21:26:12;99761.50;;;2.13;85.07
41515;BME280;27247;48.020;16.720;2022-12-07T21:30:23;99763.38;;;2.22;84.05
41515;BME280;27247;48.020;16.720;2022-12-07T21:34:33;99761.22;;;2.28;83.97
41515;BME280;27247;48.020;16.720;2022-12-07T21:38:44;99768.50;;;2.35;83.10
41515;BME280;27247;48.020;16.720;2022-12-07T21:42:55;99766.31;;;2.40;83.39
41515;BME280;27247;48.020;16.720;2022-12-07T21:47:05;99758.91;;;2.34;83.47
41515;BME280;27247;48.020;16.720;2022-12-07T21:51:16;99760.03;;;2.20;84.31
41515;BME280;27247;48.020;16.720;2022-12-07T21:55:27;99770.06;;;2.27;85.50
41515;BME280;27247;48.020;16.720;2022-12-07T21:59:37;99769.88;;;2.18;86.13
41515;BME280;27247;48.020;16.720;2022-12-07T22:03:48;99766.34;;;2.29;86.22
41515;BME280;27247;48.020;16.720;2022-12-07T22:07:59;99761.09;;;2.29;86.32
41515;BME280;27247;48.020;16.720;2022-12-07T22:12:09;99765.72;;;2.37;86.18
41515;BME280;27247;48.020;16.720;2022-12-07T22:16:19;99761.53;;;2.34;85.55
41515;BME280;27247;48.020;16.720;2022-12-07T22:20:30;99764.50;;;2.41;85.16
41515;BME280;27247;48.020;16.720;2022-12-07T22:24:41;99773.81;;;2.24;86.24
41515;BME280;27247;48.020;16.720;2022-12-07T22:28:52;99761.38;;;2.15;87.89
41515;BME280;27247;48.020;16.720;2022-12-07T22:33:02;99760.06;;;2.09;88.28
41515;BME280;27247;48.020;16.720;2022-12-07T22:37:12;99755.25;;;2.14;89.12
41515;BME280;27247;48.020;16.720;2022-12-07T22:41:25;99756.72;;;1.85;89.60
41515;BME280;27247;48.020;16.720;2022-12-07T22:45:36;99767.16;;;1.86;89.75
41515;BME280;27247;48.020;16.720;2022-12-07T22:49:48;99753.00;;;1.87;89.98
41515;BME280;27247;48.020;16.720;2022-12-07T22:54:03;99764.63;;;1.85;91.46
41515;BME280;27247;48.020;16.720;2022-12-07T22:58:14;99747.28;;;1.82;91.24
41515;BME280;27247;48.020;16.720;2022-12-07T23:02:25;99746.78;;;1.88;91.44
41515;BME280;27247;48.020;16.720;2022-12-07T23:06:35;99741.75;;;1.85;91.03
41515;BME280;27247;48.020;16.720;2022-12-07T23:10:47;99741.97;;;1.93;90.99
41515;BME280;27247;48.020;16.720;2022-12-07T23:14:58;99732.31;;;1.83;91.63
41515;BME280;27247;48.020;16.720;2022-12-07T23:19:08;99733.84;;;1.85;91.42
41515;BME280;27247;48.020;16.720;2022-12-07T23:23:18;99734.31;;;1.90;91.34
41515;BME280;27247;48.020;16.720;2022-12-07T23:27:29;99729.31;;;1.87;91.10
41515;BME280;27247;48.020;16.720;2022-12-07T23:31:39;99735.53;;;1.86;90.96
41515;BME280;27247;48.020;16.720;2022-12-07T23:35:49;99743.47;;;1.42;91.83
41515;BME280;27247;48.020;16.720;2022-12-07T23:40:00;99736.41;;;1.20;90.53
41515;BME280;27247;48.020;16.720;2022-12-07T23:44:12;99749.94;;;1.26;90.18
41515;BME280;27247;48.020;16.720;2022-12-07T23:48:22;99738.09;;;1.43;89.82
41515;BME280;27247;48.020;16.720;2022-12-07T23:52:33;99727.31;;;1.57;90.53
41515;BME280;27247;48.020;16.720;2022-12-07T23:56:43;99713.16;;;1.70;89.88
